sensor_id;sensor_type;location;lat;lon;timestamp;temperature;humidity
19652;DHT22;9974;52.146;14.668;2022-09-12T00:01:12;14.20;99.90
19652;DHT22;9974;52.146;14.668;2022-09-12T00:06:15;14.00;99.90
19652;DHT22;9974;52.146;14.668;2022-09-12T00:08:42;14.20;99.90
19652;DHT22;9974;52.146;14.668;2022-09-12T00:11:09;14.20;99.90
19652;DHT22;9974;52.146;14.668;2022-09-12T00:13:38;14.10;99.90
19652;DHT22;9974;52.146;14.668;2022-09-12T00:16:04;13.80;99.90
19652;DHT22;9974;52.146;14.668;2022-09-12T00:21:01;14.20;99.90
19652;DHT22;9974;52.146;14.668;2022-09-12T00:23:29;14.50;99.90
19652;DHT22;9974;52.146;14.668;2022-09-12T00:30:48;14.30;99.90
19652;DHT22;9974;52.146;14.668;2022-09-12T00:33:16;14.40;99.90
19652;DHT22;9974;52.146;14.668;2022-09-12T00:35:48;14.40;99.90
19652;DHT22;9974;52.146;14.668;2022-09-12T00:40:43;14.10;99.90
19652;DHT22;9974;52.146;14.668;2022-09-12T00:46:03;14.40;99.90
19652;DHT22;9974;52.146;14.668;2022-09-12T00:48:51;14.60;99.90
19652;DHT22;9974;52.146;14.668;2022-09-12T00:51:29;14.30;99.90
19652;DHT22;9974;52.146;14.668;2022-09-12T00:53:57;14.80;99.90
19652;DHT22;9974;52.146;14.668;2022-09-12T00:56:26;14.20;99.90
19652;DHT22;9974;52.146;14.668;2022-09-12T00:59:04;14.60;99.90
19652;DHT22;9974;52.146;14.668;2022-09-12T01:01:33;14.70;99.90
19652;DHT22;9974;52.146;14.668;2022-09-12T01:04:00;14.50;99.90
19652;DHT22;9974;52.146;14.668;2022-09-12T01:06:29;14.30;99.90
19652;DHT22;9974;52.146;14.668;2022-09-12T01:08:59;14.00;99.90
19652;DHT22;9974;52.146;14.668;2022-09-12T01:13:55;14.00;99.90
19652;DHT22;9974;52.146;14.668;2022-09-12T01:16:21;13.90;99.90
19652;DHT22;9974;52.146;14.668;2022-09-12T01:18:54;14.00;99.90
19652;DHT22;9974;52.146;14.668;2022-09-12T01:24:50;14.20;99.90
19652;DHT22;9974;52.146;14.668;2022-09-12T01:35:55;13.50;99.90
19652;DHT22;9974;52.146;14.668;2022-09-12T01:44:55;14.20;99.90
19652;DHT22;9974;52.146;14.668;2022-09-12T01:50:12;13.40;99.90
19652;DHT22;9974;52.146;14.668;2022-09-12T01:52:56;15.20;99.90
19652;DHT22;9974;52.146;14.668;2022-09-12T01:55:41;13.50;99.90
19652;DHT22;9974;52.146;14.668;2022-09-12T02:00:57;13.50;99.90
19652;DHT22;9974;52.146;14.668;2022-09-12T02:03:54;13.60;99.90
19652;DHT22;9974;52.146;14.668;2022-09-12T02:09:25;13.50;99.90
19652;DHT22;9974;52.146;14.668;2022-09-12T02:11:57;13.40;99.90
19652;DHT22;9974;52.146;14.668;2022-09-12T02:14:30;13.10;99.90
19652;DHT22;9974;52.146;14.668;2022-09-12T02:17:09;13.10;99.90
19652;DHT22;9974;52.146;14.668;2022-09-12T02:19:44;13.40;99.90
19652;DHT22;9974;52.146;14.668;2022-09-12T02:22:14;13.10;99.90
19652;DHT22;9974;52.146;14.668;2022-09-12T02:24:45;13.00;99.90
19652;DHT22;9974;52.146;14.668;2022-09-12T02:27:19;12.70;99.90
19652;DHT22;9974;52.146;14.668;2022-09-12T02:29:47;13.00;99.90
19652;DHT22;9974;52.146;14.668;2022-09-12T02:32:36;13.00;99.90
19652;DHT22;9974;52.146;14.668;2022-09-12T02:38:06;12.90;99.90
19652;DHT22;9974;52.146;14.668;2022-09-12T02:40:35;12.90;99.90
19652;DHT22;9974;52.146;14.668;2022-09-12T02:43:02;12.70;99.90
19652;DHT22;9974;52.146;14.668;2022-09-12T02:48:24;12.80;99.90
19652;DHT22;9974;52.146;14.668;2022-09-12T02:50:52;12.90;99.90
19652;DHT22;9974;52.146;14.668;2022-09-12T02:55:45;12.80;99.90
19652;DHT22;9974;52.146;14.668;2022-09-12T02:58:16;12.60;99.90
19652;DHT22;9974;52.146;14.668;2022-09-12T03:00:53;12.70;99.90
19652;DHT22;9974;52.146;14.668;2022-09-12T03:04:29;12.70;99.90
19652;DHT22;9974;52.146;14.668;2022-09-12T03:09:36;12.50;99.90
19652;DHT22;9974;52.146;14.668;2022-09-12T03:14:59;12.20;99.90
19652;DHT22;9974;52.146;14.668;2022-09-12T03:20:42;12.40;99.90
19652;DHT22;9974;52.146;14.668;2022-09-12T03:23:37;12.80;99.90
19652;DHT22;9974;52.146;14.668;2022-09-12T03:26:57;12.70;99.90
19652;DHT22;9974;52.146;14.668;2022-09-12T03:29:29;12.70;99.90
19652;DHT22;9974;52.146;14.668;2022-09-12T03:31:57;12.60;99.90
19652;DHT22;9974;52.146;14.668;2022-09-12T03:34:25;12.30;99.90
19652;DHT22;9974;52.146;14.668;2022-09-12T03:36:52;12.50;99.90
19652;DHT22;9974;52.146;14.668;2022-09-12T03:39:19;12.70;99.90
19652;DHT22;9974;52.146;14.668;2022-09-12T03:49:04;12.60;99.90
19652;DHT22;9974;52.146;14.668;2022-09-12T03:51:30;12.70;99.90
19652;DHT22;9974;52.146;14.668;2022-09-12T04:01:18;12.30;99.90
19652;DHT22;9974;52.146;14.668;2022-09-12T04:03:47;12.20;99.90
19652;DHT22;9974;52.146;14.668;2022-09-12T04:06:16;10.90;99.90
19652;DHT22;9974;52.146;14.668;2022-09-12T04:08:45;12.10;99.90
19652;DHT22;9974;52.146;14.668;2022-09-12T04:11:14;12.10;99.90
19652;DHT22;9974;52.146;14.668;2022-09-12T04:13:41;12.30;99.90
19652;DHT22;9974;52.146;14.668;2022-09-12T04:16:08;12.20;99.90
19652;DHT22;9974;52.146;14.668;2022-09-12T04:18:35;12.00;99.90
19652;DHT22;9974;52.146;14.668;2022-09-12T04:21:08;12.00;99.90
19652;DHT22;9974;52.146;14.668;2022-09-12T04:26:03;11.90;99.90
19652;DHT22;9974;52.146;14.668;2022-09-12T04:28:31;12.00;99.90
19652;DHT22;9974;52.146;14.668;2022-09-12T04:31:05;11.50;99.90
19652;DHT22;9974;52.146;14.668;2022-09-12T04:33:40;12.20;99.90
19652;DHT22;9974;52.146;14.668;2022-09-12T04:36:08;12.10;99.90
19652;DHT22;9974;52.146;14.668;2022-09-12T04:38:36;12.20;99.90
19652;DHT22;9974;52.146;14.668;2022-09-12T04:41:12;12.30;99.90
19652;DHT22;9974;52.146;14.668;2022-09-12T04:43:40;12.10;99.90
19652;DHT22;9974;52.146;14.668;2022-09-12T04:46:08;12.50;99.90
19652;DHT22;9974;52.146;14.668;2022-09-12T04:48:36;12.20;99.90
19652;DHT22;9974;52.146;14.668;2022-09-12T04:51:16;11.90;99.90
19652;DHT22;9974;52.146;14.668;2022-09-12T04:53:51;12.30;99.90
19652;DHT22;9974;52.146;14.668;2022-09-12T04:58:44;12.10;99.90
19652;DHT22;9974;52.146;14.668;2022-09-12T05:01:15;11.50;99.90
19652;DHT22;9974;52.146;14.668;2022-09-12T05:03:43;12.10;99.90
19652;DHT22;9974;52.146;14.668;2022-09-12T05:06:15;12.10;99.90
19652;DHT22;9974;52.146;14.668;2022-09-12T05:08:42;12.10;99.90
19652;DHT22;9974;52.146;14.668;2022-09-12T05:11:13;12.10;99.90
19652;DHT22;9974;52.146;14.668;2022-09-12T05:16:09;12.20;99.90
19652;DHT22;9974;52.146;14.668;2022-09-12T05:21:04;12.30;99.90
19652;DHT22;9974;52.146;14.668;2022-09-12T05:23:32;12.50;99.90
19652;DHT22;9974;52.146;14.668;2022-09-12T05:25:59;12.30;99.90
19652;DHT22;9974;52.146;14.668;2022-09-12T05:28:28;12.40;99.90
19652;DHT22;9974;52.146;14.668;2022-09-12T05:33:34;12.50;99.90
19652;DHT22;9974;52.146;14.668;2022-09-12T05:36:01;12.60;99.90
19652;DHT22;9974;52.146;14.668;2022-09-12T05:41:09;12.60;99.90
19652;DHT22;9974;52.146;14.668;2022-09-12T05:43:37;12.80;99.90
19652;DHT22;9974;52.146;14.668;2022-09-12T05:46:06;12.80;99.90
19652;DHT22;9974;52.146;14.668;2022-09-12T05:48:35;13.10;99.90
19652;DHT22;9974;52.146;14.668;2022-09-12T05:51:03;12.40;99.90
19652;DHT22;9974;52.146;14.668;2022-09-12T05:53:33;12.60;99.90
19652;DHT22;9974;52.146;14.668;2022-09-12T05:56:14;13.00;99.90
19652;DHT22;9974;52.146;14.668;2022-09-12T05:58:44;13.10;99.90
19652;DHT22;9974;52.146;14.668;2022-09-12T06:01:14;13.10;99.90
19652;DHT22;9974;52.146;14.668;2022-09-12T06:03:42;13.50;99.90
19652;DHT22;9974;52.146;14.668;2022-09-12T06:06:10;13.00;99.90
19652;DHT22;9974;52.146;14.668;2022-09-12T06:08:38;13.00;99.90
19652;DHT22;9974;52.146;14.668;2022-09-12T06:11:11;13.20;99.90
19652;DHT22;9974;52.146;14.668;2022-09-12T06:13:39;13.50;99.90
19652;DHT22;9974;52.146;14.668;2022-09-12T06:16:10;13.00;99.90
19652;DHT22;9974;52.146;14.668;2022-09-12T06:18:38;13.30;99.90
19652;DHT22;9974;52.146;14.668;2022-09-12T06:21:06;13.40;99.90
19652;DHT22;9974;52.146;14.668;2022-09-12T06:28:26;13.70;99.90
19652;DHT22;9974;52.146;14.668;2022-09-12T06:30:52;14.10;99.90
19652;DHT22;9974;52.146;14.668;2022-09-12T06:33:18;14.40;99.90
19652;DHT22;9974;52.146;14.668;2022-09-12T06:35:44;14.20;99.90
19652;DHT22;9974;52.146;14.668;2022-09-12T06:40:42;14.10;99.90
19652;DHT22;9974;52.146;14.668;2022-09-12T06:43:10;14.30;99.90
19652;DHT22;9974;52.146;14.668;2022-09-12T06:48:04;14.70;99.90
19652;DHT22;9974;52.146;14.668;2022-09-12T06:50:30;14.00;99.90
19652;DHT22;9974;52.146;14.668;2022-09-12T06:52:55;14.30;99.90
19652;DHT22;9974;52.146;14.668;2022-09-12T06:55:21;13.70;99.90
19652;DHT22;9974;52.146;14.668;2022-09-12T06:57:48;14.70;99.90
19652;DHT22;9974;52.146;14.668;2022-09-12T07:02:40;14.00;99.90
19652;DHT22;9974;52.146;14.668;2022-09-12T07:05:06;14.60;99.90
19652;DHT22;9974;52.146;14.668;2022-09-12T07:10:00;14.00;99.90
19652;DHT22;9974;52.146;14.668;2022-09-12T07:12:27;15.00;99.90
19652;DHT22;9974;52.146;14.668;2022-09-12T07:17:19;15.30;99.90
19652;DHT22;9974;52.146;14.668;2022-09-12T07:19:45;15.70;99.90
19652;DHT22;9974;52.146;14.668;2022-09-12T07:22:11;15.60;99.90
19652;DHT22;9974;52.146;14.668;2022-09-12T07:27:04;15.40;99.90
19652;DHT22;9974;52.146;14.668;2022-09-12T07:31:56;16.10;99.90
19652;DHT22;9974;52.146;14.668;2022-09-12T07:34:22;16.10;99.90
19652;DHT22;9974;52.146;14.668;2022-09-12T07:46:32;16.20;99.90
19652;DHT22;9974;52.146;14.668;2022-09-12T07:48:59;16.20;99.90
19652;DHT22;9974;52.146;14.668;2022-09-12T07:51:26;16.30;99.90
19652;DHT22;9974;52.146;14.668;2022-09-12T07:53:53;17.00;99.90
19652;DHT22;9974;52.146;14.668;2022-09-12T08:01:15;17.10;99.90
19652;DHT22;9974;52.146;14.668;2022-09-12T08:03:44;17.20;99.90
19652;DHT22;9974;52.146;14.668;2022-09-12T08:06:14;17.50;99.90
19652;DHT22;9974;52.146;14.668;2022-09-12T08:08:41;18.10;99.90
19652;DHT22;9974;52.146;14.668;2022-09-12T08:11:12;18.20;99.90
19652;DHT22;9974;52.146;14.668;2022-09-12T08:13:39;18.10;99.90
19652;DHT22;9974;52.146;14.668;2022-09-12T08:16:09;18.20;99.90
19652;DHT22;9974;52.146;14.668;2022-09-12T08:18:37;18.30;99.90
19652;DHT22;9974;52.146;14.668;2022-09-12T08:21:05;17.90;99.90
19652;DHT22;9974;52.146;14.668;2022-09-12T08:23:36;18.70;99.90
19652;DHT22;9974;52.146;14.668;2022-09-12T08:26:03;18.60;99.90
19652;DHT22;9974;52.146;14.668;2022-09-12T08:28:31;18.20;99.90
19652;DHT22;9974;52.146;14.668;2022-09-12T08:31:06;18.10;99.90
19652;DHT22;9974;52.146;14.668;2022-09-12T08:38:34;19.60;99.90
19652;DHT22;9974;52.146;14.668;2022-09-12T08:41:32;20.00;99.90
19652;DHT22;9974;52.146;14.668;2022-09-12T08:49:50;19.10;99.90
19652;DHT22;9974;52.146;14.668;2022-09-12T08:55:31;18.60;99.90
19652;DHT22;9974;52.146;14.668;2022-09-12T08:58:15;18.50;99.90
19652;DHT22;9974;52.146;14.668;2022-09-12T09:01:11;18.50;99.90
19652;DHT22;9974;52.146;14.668;2022-09-12T09:06:57;17.50;99.90
19652;DHT22;9974;52.146;14.668;2022-09-12T09:18:12;17.70;99.90
19652;DHT22;9974;52.146;14.668;2022-09-12T09:20:55;18.30;99.90
19652;DHT22;9974;52.146;14.668;2022-09-12T09:23:39;18.70;99.90
19652;DHT22;9974;52.146;14.668;2022-09-12T09:26:20;19.10;99.90
19652;DHT22;9974;52.146;14.668;2022-09-12T09:29:20;19.40;99.90
19652;DHT22;9974;52.146;14.668;2022-09-12T09:31:51;19.10;99.90
19652;DHT22;9974;52.146;14.668;2022-09-12T09:34:24;19.30;99.90
19652;DHT22;9974;52.146;14.668;2022-09-12T09:37:10;19.20;99.90
19652;DHT22;9974;52.146;14.668;2022-09-12T09:42:54;19.20;99.90
19652;DHT22;9974;52.146;14.668;2022-09-12T09:48:18;19.20;99.90
19652;DHT22;9974;52.146;14.668;2022-09-12T09:50:47;19.00;99.90
19652;DHT22;9974;52.146;14.668;2022-09-12T09:53:44;18.90;99.90
19652;DHT22;9974;52.146;14.668;2022-09-12T09:56:29;19.00;99.90
19652;DHT22;9974;52.146;14.668;2022-09-12T09:59:10;18.80;99.90
19652;DHT22;9974;52.146;14.668;2022-09-12T10:01:48;18.60;99.90
19652;DHT22;9974;52.146;14.668;2022-09-12T10:04:18;18.60;99.90
19652;DHT22;9974;52.146;14.668;2022-09-12T10:06:45;18.80;99.90
19652;DHT22;9974;52.146;14.668;2022-09-12T10:11:39;18.40;99.90
19652;DHT22;9974;52.146;14.668;2022-09-12T10:17:02;19.00;99.90
19652;DHT22;9974;52.146;14.668;2022-09-12T10:19:48;18.80;99.90
19652;DHT22;9974;52.146;14.668;2022-09-12T10:22:17;18.30;99.90
19652;DHT22;9974;52.146;14.668;2022-09-12T10:24:48;18.50;99.90
19652;DHT22;9974;52.146;14.668;2022-09-12T10:27:22;18.70;99.90
19652;DHT22;9974;52.146;14.668;2022-09-12T10:29:59;18.10;99.90
19652;DHT22;9974;52.146;14.668;2022-09-12T10:32:35;17.50;99.90
19652;DHT22;9974;52.146;14.668;2022-09-12T10:35:15;18.20;99.90
19652;DHT22;9974;52.146;14.668;2022-09-12T10:38:05;18.10;99.90
19652;DHT22;9974;52.146;14.668;2022-09-12T10:40:38;18.10;99.90
19652;DHT22;9974;52.146;14.668;2022-09-12T10:43:33;18.40;99.90
19652;DHT22;9974;52.146;14.668;2022-09-12T10:48:43;18.30;99.90
19652;DHT22;9974;52.146;14.668;2022-09-12T10:51:28;18.50;99.90
19652;DHT22;9974;52.146;14.668;2022-09-12T10:53:56;18.80;99.90
19652;DHT22;9974;52.146;14.668;2022-09-12T10:56:37;19.10;99.90
19652;DHT22;9974;52.146;14.668;2022-09-12T11:01:59;19.50;99.90
19652;DHT22;9974;52.146;14.668;2022-09-12T11:07:20;20.00;99.90
19652;DHT22;9974;52.146;14.668;2022-09-12T11:10:16;20.10;99.90
19652;DHT22;9974;52.146;14.668;2022-09-12T11:12:58;20.00;99.90
19652;DHT22;9974;52.146;14.668;2022-09-12T11:19:08;19.70;99.90
19652;DHT22;9974;52.146;14.668;2022-09-12T11:28:17;19.10;99.90
19652;DHT22;9974;52.146;14.668;2022-09-12T11:34:07;18.80;99.90
19652;DHT22;9974;52.146;14.668;2022-09-12T11:39:38;19.10;99.90
19652;DHT22;9974;52.146;14.668;2022-09-12T11:42:11;18.80;99.90
19652;DHT22;9974;52.146;14.668;2022-09-12T11:44:44;19.20;99.90
19652;DHT22;9974;52.146;14.668;2022-09-12T11:47:12;18.50;99.90
19652;DHT22;9974;52.146;14.668;2022-09-12T11:49:48;18.60;99.90
19652;DHT22;9974;52.146;14.668;2022-09-12T11:52:24;18.60;99.90
19652;DHT22;9974;52.146;14.668;2022-09-12T11:55:00;18.80;99.90
19652;DHT22;9974;52.146;14.668;2022-09-12T11:57:57;18.80;99.90
19652;DHT22;9974;52.146;14.668;2022-09-12T12:00:33;18.80;99.90
19652;DHT22;9974;52.146;14.668;2022-09-12T12:03:36;18.80;99.90
19652;DHT22;9974;52.146;14.668;2022-09-12T12:06:11;18.90;99.90
19652;DHT22;9974;52.146;14.668;2022-09-12T12:08:50;19.00;99.90
19652;DHT22;9974;52.146;14.668;2022-09-12T12:11:28;18.80;99.90
19652;DHT22;9974;52.146;14.668;2022-09-12T12:13:59;18.50;99.90
19652;DHT22;9974;52.146;14.668;2022-09-12T12:21:50;19.30;99.90
19652;DHT22;9974;52.146;14.668;2022-09-12T12:24:24;20.10;99.90
19652;DHT22;9974;52.146;14.668;2022-09-12T12:26:56;19.70;99.90
19652;DHT22;9974;52.146;14.668;2022-09-12T12:29:37;19.90;99.90
19652;DHT22;9974;52.146;14.668;2022-09-12T12:34:41;20.20;99.90
19652;DHT22;9974;52.146;14.668;2022-09-12T12:45:03;20.50;99.90
19652;DHT22;9974;52.146;14.668;2022-09-12T12:47:57;20.60;99.90
19652;DHT22;9974;52.146;14.668;2022-09-12T12:50:27;20.90;99.90
19652;DHT22;9974;52.146;14.668;2022-09-12T12:53:04;21.10;99.90
19652;DHT22;9974;52.146;14.668;2022-09-12T12:55:45;20.80;99.90
19652;DHT22;9974;52.146;14.668;2022-09-12T13:03:36;22.70;99.90
19652;DHT22;9974;52.146;14.668;2022-09-12T13:06:05;22.30;99.90
19652;DHT22;9974;52.146;14.668;2022-09-12T13:08:35;22.20;99.90
19652;DHT22;9974;52.146;14.668;2022-09-12T13:11:30;21.80;99.90
19652;DHT22;9974;52.146;14.668;2022-09-12T13:14:05;21.30;99.90
19652;DHT22;9974;52.146;14.668;2022-09-12T13:19:06;20.70;99.90
19652;DHT22;9974;52.146;14.668;2022-09-12T13:24:22;20.50;99.90
19652;DHT22;9974;52.146;14.668;2022-09-12T13:29:23;20.30;99.90
19652;DHT22;9974;52.146;14.668;2022-09-12T13:31:58;20.30;99.90
19652;DHT22;9974;52.146;14.668;2022-09-12T13:34:36;19.90;99.90
19652;DHT22;9974;52.146;14.668;2022-09-12T13:37:33;20.10;99.90
19652;DHT22;9974;52.146;14.668;2022-09-12T13:40:44;19.80;99.90
19652;DHT22;9974;52.146;14.668;2022-09-12T13:43:38;19.60;99.90
19652;DHT22;9974;52.146;14.668;2022-09-12T13:46:07;19.90;99.90
19652;DHT22;9974;52.146;14.668;2022-09-12T13:48:33;20.00;99.90
19652;DHT22;9974;52.146;14.668;2022-09-12T13:51:01;19.90;99.90
19652;DHT22;9974;52.146;14.668;2022-09-12T13:53:41;19.90;99.90
19652;DHT22;9974;52.146;14.668;2022-09-12T13:56:15;20.40;99.90
19652;DHT22;9974;52.146;14.668;2022-09-12T13:58:53;19.90;99.90
19652;DHT22;9974;52.146;14.668;2022-09-12T14:04:17;19.70;99.90
19652;DHT22;9974;52.146;14.668;2022-09-12T14:07:21;19.50;99.90
19652;DHT22;9974;52.146;14.668;2022-09-12T14:09:54;19.80;99.90
19652;DHT22;9974;52.146;14.668;2022-09-12T14:12:37;19.80;99.90
19652;DHT22;9974;52.146;14.668;2022-09-12T14:15:29;19.80;99.90
19652;DHT22;9974;52.146;14.668;2022-09-12T14:17:59;19.80;99.90
19652;DHT22;9974;52.146;14.668;2022-09-12T14:20:27;19.40;99.90
19652;DHT22;9974;52.146;14.668;2022-09-12T14:23:06;19.60;99.90
19652;DHT22;9974;52.146;14.668;2022-09-12T14:25:51;19.70;99.90
19652;DHT22;9974;52.146;14.668;2022-09-12T14:28:17;19.40;99.90
19652;DHT22;9974;52.146;14.668;2022-09-12T14:31:01;19.50;99.90
19652;DHT22;9974;52.146;14.668;2022-09-12T14:33:54;19.90;99.90
19652;DHT22;9974;52.146;14.668;2022-09-12T14:36:34;19.50;99.90
19652;DHT22;9974;52.146;14.668;2022-09-12T14:39:04;19.30;99.90
19652;DHT22;9974;52.146;14.668;2022-09-12T14:41:35;19.70;99.90
19652;DHT22;9974;52.146;14.668;2022-09-12T14:44:12;19.60;99.90
19652;DHT22;9974;52.146;14.668;2022-09-12T14:46:48;19.50;99.90
19652;DHT22;9974;52.146;14.668;2022-09-12T14:49:15;20.00;99.90
19652;DHT22;9974;52.146;14.668;2022-09-12T14:56:56;19.60;99.90
19652;DHT22;9974;52.146;14.668;2022-09-12T14:59:36;20.10;99.90
19652;DHT22;9974;52.146;14.668;2022-09-12T15:04:43;19.60;99.90
19652;DHT22;9974;52.146;14.668;2022-09-12T15:09:54;19.60;99.90
19652;DHT22;9974;52.146;14.668;2022-09-12T15:12:23;19.70;99.90
19652;DHT22;9974;52.146;14.668;2022-09-12T15:14:49;19.90;99.90
19652;DHT22;9974;52.146;14.668;2022-09-12T15:17:15;19.70;99.90
19652;DHT22;9974;52.146;14.668;2022-09-12T15:22:10;19.50;99.90
19652;DHT22;9974;52.146;14.668;2022-09-12T15:24:36;19.90;99.90
19652;DHT22;9974;52.146;14.668;2022-09-12T15:27:10;19.70;99.90
19652;DHT22;9974;52.146;14.668;2022-09-12T15:29:37;19.50;99.90
19652;DHT22;9974;52.146;14.668;2022-09-12T15:32:04;19.60;99.90
19652;DHT22;9974;52.146;14.668;2022-09-12T15:34:30;19.50;99.90
19652;DHT22;9974;52.146;14.668;2022-09-12T15:39:22;19.30;99.90
19652;DHT22;9974;52.146;14.668;2022-09-12T15:41:48;19.90;99.90
19652;DHT22;9974;52.146;14.668;2022-09-12T15:53:59;19.50;99.90
19652;DHT22;9974;52.146;14.668;2022-09-12T16:06:13;19.50;99.90
19652;DHT22;9974;52.146;14.668;2022-09-12T16:11:21;19.20;99.90
19652;DHT22;9974;52.146;14.668;2022-09-12T16:13:48;19.20;99.90
19652;DHT22;9974;52.146;14.668;2022-09-12T16:16:16;19.20;99.90
19652;DHT22;9974;52.146;14.668;2022-09-12T16:26:03;18.90;99.90
19652;DHT22;9974;52.146;14.668;2022-09-12T16:28:30;18.80;99.90
19652;DHT22;9974;52.146;14.668;2022-09-12T16:30:59;18.90;99.90
19652;DHT22;9974;52.146;14.668;2022-09-12T16:36:03;18.30;99.90
19652;DHT22;9974;52.146;14.668;2022-09-12T16:38:32;18.20;99.90
19652;DHT22;9974;52.146;14.668;2022-09-12T16:41:04;18.30;99.90
19652;DHT22;9974;52.146;14.668;2022-09-12T16:43:31;18.50;99.90
19652;DHT22;9974;52.146;14.668;2022-09-12T16:46:18;18.40;99.90
19652;DHT22;9974;52.146;14.668;2022-09-12T16:48:53;18.40;99.90
19652;DHT22;9974;52.146;14.668;2022-09-12T16:51:25;18.70;99.90
19652;DHT22;9974;52.146;14.668;2022-09-12T16:53:53;18.30;99.90
19652;DHT22;9974;52.146;14.668;2022-09-12T16:56:19;17.90;99.90
19652;DHT22;9974;52.146;14.668;2022-09-12T16:58:45;18.40;99.90
19652;DHT22;9974;52.146;14.668;2022-09-12T17:01:16;18.10;99.90
19652;DHT22;9974;52.146;14.668;2022-09-12T17:03:43;18.30;99.90
19652;DHT22;9974;52.146;14.668;2022-09-12T17:06:11;18.00;99.90
19652;DHT22;9974;52.146;14.668;2022-09-12T17:08:43;17.90;99.90
19652;DHT22;9974;52.146;14.668;2022-09-12T17:11:13;17.60;99.90
19652;DHT22;9974;52.146;14.668;2022-09-12T17:13:40;17.50;99.90
19652;DHT22;9974;52.146;14.668;2022-09-12T17:16:08;17.70;99.90
19652;DHT22;9974;52.146;14.668;2022-09-12T17:21:02;17.90;99.90
19652;DHT22;9974;52.146;14.668;2022-09-12T17:25:54;17.10;99.90
19652;DHT22;9974;52.146;14.668;2022-09-12T17:28:20;17.60;99.90
19652;DHT22;9974;52.146;14.668;2022-09-12T17:30:53;17.30;99.90
19652;DHT22;9974;52.146;14.668;2022-09-12T17:33:20;16.90;99.90
19652;DHT22;9974;52.146;14.668;2022-09-12T17:35:45;17.40;99.90
19652;DHT22;9974;52.146;14.668;2022-09-12T17:50:21;16.40;99.90
19652;DHT22;9974;52.146;14.668;2022-09-12T17:52:47;17.00;99.90
19652;DHT22;9974;52.146;14.668;2022-09-12T17:55:13;17.10;99.90
19652;DHT22;9974;52.146;14.668;2022-09-12T17:57:40;16.90;99.90
19652;DHT22;9974;52.146;14.668;2022-09-12T18:05:00;16.40;99.90
19652;DHT22;9974;52.146;14.668;2022-09-12T18:07:30;16.90;99.90
19652;DHT22;9974;52.146;14.668;2022-09-12T18:09:56;16.70;99.90
19652;DHT22;9974;52.146;14.668;2022-09-12T18:12:23;16.50;99.90
19652;DHT22;9974;52.146;14.668;2022-09-12T18:14:48;16.60;99.90
19652;DHT22;9974;52.146;14.668;2022-09-12T18:17:15;16.60;99.90
19652;DHT22;9974;52.146;14.668;2022-09-12T18:27:00;16.20;99.90
19652;DHT22;9974;52.146;14.668;2022-09-12T18:36:48;16.20;99.90
19652;DHT22;9974;52.146;14.668;2022-09-12T18:39:15;15.80;99.90
19652;DHT22;9974;52.146;14.668;2022-09-12T18:41:42;16.10;99.90
19652;DHT22;9974;52.146;14.668;2022-09-12T18:44:09;16.20;99.90
19652;DHT22;9974;52.146;14.668;2022-09-12T18:46:36;15.70;99.90
19652;DHT22;9974;52.146;14.668;2022-09-12T18:51:30;15.90;99.90
19652;DHT22;9974;52.146;14.668;2022-09-12T18:53:59;15.80;99.90
19652;DHT22;9974;52.146;14.668;2022-09-12T18:56:29;15.70;99.90
19652;DHT22;9974;52.146;14.668;2022-09-12T18:59:00;15.50;99.90
19652;DHT22;9974;52.146;14.668;2022-09-12T19:01:30;15.60;99.90
19652;DHT22;9974;52.146;14.668;2022-09-12T19:03:57;15.30;99.90
19652;DHT22;9974;52.146;14.668;2022-09-12T19:06:26;15.50;99.90
19652;DHT22;9974;52.146;14.668;2022-09-12T19:08:54;15.70;99.90
19652;DHT22;9974;52.146;14.668;2022-09-12T19:11:21;15.50;99.90
19652;DHT22;9974;52.146;14.668;2022-09-12T19:13:49;15.50;99.90
19652;DHT22;9974;52.146;14.668;2022-09-12T19:16:18;15.50;99.90
19652;DHT22;9974;52.146;14.668;2022-09-12T19:21:16;15.20;99.90
19652;DHT22;9974;52.146;14.668;2022-09-12T19:23:44;15.70;99.90
19652;DHT22;9974;52.146;14.668;2022-09-12T19:26:12;15.30;99.90
19652;DHT22;9974;52.146;14.668;2022-09-12T19:28:39;15.20;99.90
19652;DHT22;9974;52.146;14.668;2022-09-12T19:31:06;15.40;99.90
19652;DHT22;9974;52.146;14.668;2022-09-12T19:33:33;15.30;99.90
19652;DHT22;9974;52.146;14.668;2022-09-12T19:36:00;15.40;99.90
19652;DHT22;9974;52.146;14.668;2022-09-12T19:38:27;15.20;99.90
19652;DHT22;9974;52.146;14.668;2022-09-12T19:40:57;15.20;99.90
19652;DHT22;9974;52.146;14.668;2022-09-12T19:50:43;14.70;99.90
19652;DHT22;9974;52.146;14.668;2022-09-12T19:55:36;15.40;99.90
19652;DHT22;9974;52.146;14.668;2022-09-12T19:58:02;15.40;99.90
19652;DHT22;9974;52.146;14.668;2022-09-12T20:00:30;14.70;99.90
19652;DHT22;9974;52.146;14.668;2022-09-12T20:15:09;15.00;99.90
19652;DHT22;9974;52.146;14.668;2022-09-12T20:17:36;14.80;99.90
19652;DHT22;9974;52.146;14.668;2022-09-12T20:24:55;15.20;99.90
19652;DHT22;9974;52.146;14.668;2022-09-12T20:56:35;14.30;99.90
19652;DHT22;9974;52.146;14.668;2022-09-12T20:59:02;14.30;99.90
19652;DHT22;9974;52.146;14.668;2022-09-12T21:01:29;14.50;99.90
19652;DHT22;9974;52.146;14.668;2022-09-12T21:08:48;14.30;99.90
19652;DHT22;9974;52.146;14.668;2022-09-12T21:11:15;14.40;99.90
19652;DHT22;9974;52.146;14.668;2022-09-12T21:13:41;14.10;99.90
19652;DHT22;9974;52.146;14.668;2022-09-12T21:16:15;14.00;99.90
19652;DHT22;9974;52.146;14.668;2022-09-12T21:21:10;13.90;99.90
19652;DHT22;9974;52.146;14.668;2022-09-12T21:23:38;13.80;99.90
19652;DHT22;9974;52.146;14.668;2022-09-12T21:26:04;13.80;99.90
19652;DHT22;9974;52.146;14.668;2022-09-12T21:28:30;13.80;99.90
19652;DHT22;9974;52.146;14.668;2022-09-12T21:30:56;13.60;99.90
19652;DHT22;9974;52.146;14.668;2022-09-12T21:33:22;13.00;99.90
19652;DHT22;9974;52.146;14.668;2022-09-12T21:38:15;12.90;99.90
19652;DHT22;9974;52.146;14.668;2022-09-12T21:40:41;14.00;99.90
19652;DHT22;9974;52.146;14.668;2022-09-12T21:45:33;13.70;99.90
19652;DHT22;9974;52.146;14.668;2022-09-12T21:47:59;13.60;99.90
19652;DHT22;9974;52.146;14.668;2022-09-12T21:52:51;13.70;99.90
19652;DHT22;9974;52.146;14.668;2022-09-12T21:55:17;13.60;99.90
19652;DHT22;9974;52.146;14.668;2022-09-12T22:00:12;12.90;99.90
19652;DHT22;9974;52.146;14.668;2022-09-12T22:02:39;13.60;99.90
19652;DHT22;9974;52.146;14.668;2022-09-12T22:07:32;13.70;99.90
19652;DHT22;9974;52.146;14.668;2022-09-12T22:09:58;13.70;99.90
19652;DHT22;9974;52.146;14.668;2022-09-12T22:14:51;13.10;99.90
19652;DHT22;9974;52.146;14.668;2022-09-12T22:17:19;13.60;99.90
19652;DHT22;9974;52.146;14.668;2022-09-12T22:22:11;13.10;99.90
19652;DHT22;9974;52.146;14.668;2022-09-12T22:24:55;13.40;99.90
19652;DHT22;9974;52.146;14.668;2022-09-12T22:29:48;13.20;99.90
19652;DHT22;9974;52.146;14.668;2022-09-12T22:39:37;13.20;99.90